sensor_id;sensor_type;location;lat;lon;timestamp;pressure;altitude;pressure_sealevel;temperature;humidity
77351;BME280;66420;50.246;14.320;2023-01-23T00:01:55;101117.41;;;-0.57;91.60
77351;BME280;66420;50.246;14.320;2023-01-23T00:04:39;101117.22;;;-0.55;91.27
77351;BME280;66420;50.246;14.320;2023-01-23T00:07:24;101124.47;;;-0.56;91.01
77351;BME280;66420;50.246;14.320;2023-01-23T00:10:10;101120.28;;;-0.58;91.15
77351;BME280;66420;50.246;14.320;2023-01-23T00:12:55;101136.25;;;-0.57;91.91
77351;BME280;66420;50.246;14.320;2023-01-23T00:15:40;101135.81;;;-0.60;91.28
77351;BME280;66420;50.246;14.320;2023-01-23T00:18:25;101140.38;;;-0.54;91.04
77351;BME280;66420;50.246;14.320;2023-01-23T00:21:12;101135.84;;;-0.54;91.60
77351;BME280;66420;50.246;14.320;2023-01-23T00:23:58;101136.66;;;-0.53;91.52
77351;BME280;66420;50.246;14.320;2023-01-23T00:26:44;101145.38;;;-0.51;91.09
77351;BME280;66420;50.246;14.320;2023-01-23T00:29:29;101132.56;;;-0.49;90.99
77351;BME280;66420;50.246;14.320;2023-01-23T00:32:13;101139.59;;;-0.48;91.24
77351;BME280;66420;50.246;14.320;2023-01-23T00:34:57;101142.09;;;-0.47;90.50
77351;BME280;66420;50.246;14.320;2023-01-23T00:37:43;101148.31;;;-0.46;90.86
77351;BME280;66420;50.246;14.320;2023-01-23T00:40:28;101147.47;;;-0.47;91.08
77351;BME280;66420;50.246;14.320;2023-01-23T00:43:13;101153.22;;;-0.50;90.61
77351;BME280;66420;50.246;14.320;2023-01-23T00:45:58;101154.06;;;-0.49;91.44
77351;BME280;66420;50.246;14.320;2023-01-23T00:48:43;101151.19;;;-0.48;91.50
77351;BME280;66420;50.246;14.320;2023-01-23T00:51:27;101152.03;;;-0.47;91.23
77351;BME280;66420;50.246;14.320;2023-01-23T00:54:12;101153.28;;;-0.43;91.67
77351;BME280;66420;50.246;14.320;2023-01-23T00:56:57;101157.84;;;-0.43;90.83
77351;BME280;66420;50.246;14.320;2023-01-23T00:59:41;101159.69;;;-0.44;90.75
77351;BME280;66420;50.246;14.320;2023-01-23T01:02:26;101160.09;;;-0.47;90.62
77351;BME280;66420;50.246;14.320;2023-01-23T01:05:10;101164.63;;;-0.48;90.87
77351;BME280;66420;50.246;14.320;2023-01-23T01:07:55;101165.47;;;-0.47;91.14
77351;BME280;66420;50.246;14.320;2023-01-23T01:10:40;101175.00;;;-0.45;91.21
77351;BME280;66420;50.246;14.320;2023-01-23T01:13:25;101169.81;;;-0.46;90.82
77351;BME280;66420;50.246;14.320;2023-01-23T01:16:10;101183.28;;;-0.46;90.80
77351;BME280;66420;50.246;14.320;2023-01-23T01:18:55;101175.63;;;-0.42;90.56
77351;BME280;66420;50.246;14.320;2023-01-23T01:21:40;101174.81;;;-0.43;91.04
77351;BME280;66420;50.246;14.320;2023-01-23T01:24:25;101171.09;;;-0.42;90.75
77351;BME280;66420;50.246;14.320;2023-01-23T01:27:10;101170.88;;;-0.40;90.50
77351;BME280;66420;50.246;14.320;2023-01-23T01:29:54;101172.72;;;-0.41;90.48
77351;BME280;66420;50.246;14.320;2023-01-23T01:32:40;101188.06;;;-0.41;91.00
77351;BME280;66420;50.246;14.320;2023-01-23T01:35:24;101183.69;;;-0.42;90.36
77351;BME280;66420;50.246;14.320;2023-01-23T01:38:09;101181.00;;;-0.42;89.81
77351;BME280;66420;50.246;14.320;2023-01-23T01:40:53;101179.75;;;-0.47;90.31
77351;BME280;66420;50.246;14.320;2023-01-23T01:43:41;101176.59;;;-0.50;91.74
77351;BME280;66420;50.246;14.320;2023-01-23T01:46:27;101181.19;;;-0.44;91.88
77351;BME280;66420;50.246;14.320;2023-01-23T01:49:24;101175.00;;;-0.45;91.11
77351;BME280;66420;50.246;14.320;2023-01-23T01:52:11;101164.66;;;-0.41;91.18
77351;BME280;66420;50.246;14.320;2023-01-23T01:54:59;101177.31;;;-0.41;90.53
77351;BME280;66420;50.246;14.320;2023-01-23T01:57:45;101169.41;;;-0.43;90.98
77351;BME280;66420;50.246;14.320;2023-01-23T02:00:32;101164.03;;;-0.43;90.68
77351;BME280;66420;50.246;14.320;2023-01-23T02:03:17;101170.44;;;-0.44;90.77
77351;BME280;66420;50.246;14.320;2023-01-23T02:06:03;101180.19;;;-0.43;90.50
77351;BME280;66420;50.246;14.320;2023-01-23T02:11:48;101166.09;;;-0.45;91.72
77351;BME280;66420;50.246;14.320;2023-01-23T02:14:34;101171.09;;;-0.42;90.89
77351;BME280;66420;50.246;14.320;2023-01-23T02:17:18;101167.75;;;-0.44;91.22
77351;BME280;66420;50.246;14.320;2023-01-23T02:20:22;101171.09;;;-0.42;90.77
77351;BME280;66420;50.246;14.320;2023-01-23T02:26:29;101171.72;;;-0.40;90.52
77351;BME280;66420;50.246;14.320;2023-01-23T02:29:16;101173.56;;;-0.40;91.41
77351;BME280;66420;50.246;14.320;2023-01-23T02:32:02;101164.66;;;-0.41;91.36
77351;BME280;66420;50.246;14.320;2023-01-23T02:34:47;101169.00;;;-0.40;90.97
77351;BME280;66420;50.246;14.320;2023-01-23T02:37:37;101171.72;;;-0.40;91.19
77351;BME280;66420;50.246;14.320;2023-01-23T02:40:35;101172.72;;;-0.41;90.94
77351;BME280;66420;50.246;14.320;2023-01-23T02:43:24;101168.00;;;-0.39;90.89
77351;BME280;66420;50.246;14.320;2023-01-23T02:46:10;101172.34;;;-0.38;91.23
77351;BME280;66420;50.246;14.320;2023-01-23T02:48:55;101171.09;;;-0.42;90.44
77351;BME280;66420;50.246;14.320;2023-01-23T02:51:39;101175.81;;;-0.44;91.50
77351;BME280;66420;50.246;14.320;2023-01-23T02:54:24;101179.78;;;-0.40;90.79
77351;BME280;66420;50.246;14.320;2023-01-23T02:57:09;101166.97;;;-0.38;91.64
77351;BME280;66420;50.246;14.320;2023-01-23T02:59:54;101179.78;;;-0.40;90.81
77351;BME280;66420;50.246;14.320;2023-01-23T03:02:57;101172.72;;;-0.41;91.06
77351;BME280;66420;50.246;14.320;2023-01-23T03:05:42;101178.50;;;-0.44;90.28
77351;BME280;66420;50.246;14.320;2023-01-23T03:08:26;101180.59;;;-0.46;91.03
77351;BME280;66420;50.246;14.320;2023-01-23T03:11:17;101191.34;;;-0.46;90.87
77351;BME280;66420;50.246;14.320;2023-01-23T03:14:03;101184.66;;;-0.50;91.69
77351;BME280;66420;50.246;14.320;2023-01-23T03:16:48;101181.78;;;-0.49;90.79
77351;BME280;66420;50.246;14.320;2023-01-23T03:19:37;101171.00;;;-0.55;92.04
77351;BME280;66420;50.246;14.320;2023-01-23T03:22:22;101174.31;;;-0.53;91.40
77351;BME280;66420;50.246;14.320;2023-01-23T03:25:08;101189.84;;;-0.55;91.85
77351;BME280;66420;50.246;14.320;2023-01-23T03:27:52;101189.19;;;-0.57;91.50
77351;BME280;66420;50.246;14.320;2023-01-23T03:30:37;101177.59;;;-0.58;90.78
77351;BME280;66420;50.246;14.320;2023-01-23T03:33:21;101183.38;;;-0.61;91.24
77351;BME280;66420;50.246;14.320;2023-01-23T03:36:06;101183.63;;;-0.56;90.71
77351;BME280;66420;50.246;14.320;2023-01-23T03:38:51;101188.94;;;-0.62;91.33
77351;BME280;66420;50.246;14.320;2023-01-23T03:41:54;101187.09;;;-0.62;91.22
77351;BME280;66420;50.246;14.320;2023-01-23T03:44:39;101185.66;;;-0.58;91.73
77351;BME280;66420;50.246;14.320;2023-01-23T03:47:23;101187.28;;;-0.63;91.86
77351;BME280;66420;50.246;14.320;2023-01-23T03:50:09;101192.91;;;-0.58;91.13
77351;BME280;66420;50.246;14.320;2023-01-23T03:52:54;101191.28;;;-0.53;90.78
77351;BME280;66420;50.246;14.320;2023-01-23T03:55:39;101194.41;;;-0.49;91.17
77351;BME280;66420;50.246;14.320;2023-01-23T03:58:23;101193.38;;;-0.48;90.46
77351;BME280;66420;50.246;14.320;2023-01-23T04:01:08;101195.06;;;-0.47;90.79
77351;BME280;66420;50.246;14.320;2023-01-23T04:03:53;101200.44;;;-0.47;89.98
77351;BME280;66420;50.246;14.320;2023-01-23T04:06:37;101194.41;;;-0.49;90.28
77351;BME280;66420;50.246;14.320;2023-01-23T04:09:22;101200.81;;;-0.50;90.54
77351;BME280;66420;50.246;14.320;2023-01-23T04:12:11;101199.16;;;-0.51;90.28
77351;BME280;66420;50.246;14.320;2023-01-23T04:14:56;101199.34;;;-0.53;90.18
77351;BME280;66420;50.246;14.320;2023-01-23T04:17:40;101197.31;;;-0.51;90.44
77351;BME280;66420;50.246;14.320;2023-01-23T04:20:25;101205.56;;;-0.52;90.90
77351;BME280;66420;50.246;14.320;2023-01-23T04:23:09;101195.81;;;-0.53;90.53
77351;BME280;66420;50.246;14.320;2023-01-23T04:25:54;101203.72;;;-0.52;90.91
77351;BME280;66420;50.246;14.320;2023-01-23T04:28:39;101211.13;;;-0.54;90.38
77351;BME280;66420;50.246;14.320;2023-01-23T04:31:23;101215.66;;;-0.54;90.30
77351;BME280;66420;50.246;14.320;2023-01-23T04:34:08;101208.66;;;-0.55;90.79
77351;BME280;66420;50.246;14.320;2023-01-23T04:36:52;101212.97;;;-0.54;90.29
77351;BME280;66420;50.246;14.320;2023-01-23T04:39:37;101216.91;;;-0.57;90.80
77351;BME280;66420;50.246;14.320;2023-01-23T04:42:21;101209.03;;;-0.58;90.58
77351;BME280;66420;50.246;14.320;2023-01-23T04:45:07;101204.88;;;-0.61;90.80
77351;BME280;66420;50.246;14.320;2023-01-23T04:47:53;101205.47;;;-0.65;91.05
77351;BME280;66420;50.246;14.320;2023-01-23T04:50:38;101203.81;;;-0.66;91.46
77351;BME280;66420;50.246;14.320;2023-01-23T04:53:22;101213.91;;;-0.68;91.48
77351;BME280;66420;50.246;14.320;2023-01-23T04:56:07;101211.47;;;-0.63;91.38
77351;BME280;66420;50.246;14.320;2023-01-23T04:58:51;101205.72;;;-0.60;91.67
77351;BME280;66420;50.246;14.320;2023-01-23T05:01:36;101215.06;;;-0.56;91.19
77351;BME280;66420;50.246;14.320;2023-01-23T05:04:21;101207.34;;;-0.59;90.59
77351;BME280;66420;50.246;14.320;2023-01-23T05:07:05;101206.91;;;-0.63;90.42
77351;BME280;66420;50.246;14.320;2023-01-23T05:09:50;101199.19;;;-0.72;91.30
77351;BME280;66420;50.246;14.320;2023-01-23T05:12:35;101193.19;;;-0.74;91.29
77351;BME280;66420;50.246;14.320;2023-01-23T05:15:19;101190.75;;;-0.69;91.81
77351;BME280;66420;50.246;14.320;2023-01-23T05:18:04;101186.00;;;-0.67;90.78
77351;BME280;66420;50.246;14.320;2023-01-23T05:20:48;101191.38;;;-0.67;91.59
77351;BME280;66420;50.246;14.320;2023-01-23T05:23:33;101182.03;;;-0.71;90.63
77351;BME280;66420;50.246;14.320;2023-01-23T05:26:18;101187.81;;;-0.74;90.58
77351;BME280;66420;50.246;14.320;2023-01-23T05:29:02;101191.53;;;-0.75;91.32
77351;BME280;66420;50.246;14.320;2023-01-23T05:31:46;101191.72;;;-0.77;90.67
77351;BME280;66420;50.246;14.320;2023-01-23T05:34:31;101180.34;;;-0.79;90.22
77351;BME280;66420;50.246;14.320;2023-01-23T05:37:15;101197.31;;;-0.78;90.59
77351;BME280;66420;50.246;14.320;2023-01-23T05:40:00;101201.00;;;-0.79;90.03
77351;BME280;66420;50.246;14.320;2023-01-23T05:42:45;101201.00;;;-0.79;90.10
77351;BME280;66420;50.246;14.320;2023-01-23T05:45:30;101206.38;;;-0.79;90.25
77351;BME280;66420;50.246;14.320;2023-01-23T05:48:14;101208.06;;;-0.78;90.90
77351;BME280;66420;50.246;14.320;2023-01-23T05:51:01;101210.75;;;-0.78;90.32
77351;BME280;66420;50.246;14.320;2023-01-23T05:53:46;101218.41;;;-0.75;91.07
77351;BME280;66420;50.246;14.320;2023-01-23T05:56:31;101233.72;;;-0.76;91.04
77351;BME280;66420;50.246;14.320;2023-01-23T05:59:15;101244.47;;;-0.76;90.51
77351;BME280;66420;50.246;14.320;2023-01-23T06:02:00;101242.78;;;-0.77;91.00
77351;BME280;66420;50.246;14.320;2023-01-23T06:04:48;101256.03;;;-0.75;90.96
77351;BME280;66420;50.246;14.320;2023-01-23T06:07:33;101263.09;;;-0.74;91.60
77351;BME280;66420;50.246;14.320;2023-01-23T06:10:17;101270.50;;;-0.76;90.88
77351;BME280;66420;50.246;14.320;2023-01-23T06:13:02;101265.38;;;-0.71;91.41
77351;BME280;66420;50.246;14.320;2023-01-23T06:15:46;101270.13;;;-0.73;91.32
77351;BME280;66420;50.246;14.320;2023-01-23T06:18:30;101271.41;;;-0.69;91.40
77351;BME280;66420;50.246;14.320;2023-01-23T06:21:15;101262.50;;;-0.70;90.47
77351;BME280;66420;50.246;14.320;2023-01-23T06:24:01;101275.13;;;-0.70;90.70
77351;BME280;66420;50.246;14.320;2023-01-23T06:26:46;101281.06;;;-0.75;89.55
77351;BME280;66420;50.246;14.320;2023-01-23T06:29:31;101274.47;;;-0.72;90.11
77351;BME280;66420;50.246;14.320;2023-01-23T06:32:15;101279.84;;;-0.72;90.89
77351;BME280;66420;50.246;14.320;2023-01-23T06:34:59;101289.13;;;-0.75;90.31
77351;BME280;66420;50.246;14.320;2023-01-23T06:37:45;101288.75;;;-0.72;90.04
77351;BME280;66420;50.246;14.320;2023-01-23T06:40:29;101293.69;;;-0.75;90.29
77351;BME280;66420;50.246;14.320;2023-01-23T06:43:14;101296.09;;;-0.80;91.09
77351;BME280;66420;50.246;14.320;2023-01-23T06:45:58;101294.44;;;-0.81;90.56
77351;BME280;66420;50.246;14.320;2023-01-23T06:48:43;101294.44;;;-0.81;90.38
77351;BME280;66420;50.246;14.320;2023-01-23T06:51:27;101303.53;;;-0.82;90.20
77351;BME280;66420;50.246;14.320;2023-01-23T06:54:12;101312.63;;;-0.83;90.46
77351;BME280;66420;50.246;14.320;2023-01-23T06:56:56;101298.13;;;-0.82;91.21
77351;BME280;66420;50.246;14.320;2023-01-23T06:59:41;101308.13;;;-0.76;91.03
77351;BME280;66420;50.246;14.320;2023-01-23T07:02:26;101316.47;;;-0.71;90.56
77351;BME280;66420;50.246;14.320;2023-01-23T07:05:10;101324.13;;;-0.68;90.52
77351;BME280;66420;50.246;14.320;2023-01-23T07:07:54;101321.53;;;-0.62;89.93
77351;BME280;66420;50.246;14.320;2023-01-23T07:10:39;101326.25;;;-0.64;90.19
77351;BME280;66420;50.246;14.320;2023-01-23T07:13:24;101326.25;;;-0.64;90.58
77351;BME280;66420;50.246;14.320;2023-01-23T07:16:09;101333.94;;;-0.61;90.32
77351;BME280;66420;50.246;14.320;2023-01-23T07:18:53;101335.63;;;-0.60;90.24
77351;BME280;66420;50.246;14.320;2023-01-23T07:21:38;101336.25;;;-0.58;90.19
77351;BME280;66420;50.246;14.320;2023-01-23T07:24:22;101326.13;;;-0.56;90.55
77351;BME280;66420;50.246;14.320;2023-01-23T07:27:07;101334.81;;;-0.54;90.25
77351;BME280;66420;50.246;14.320;2023-01-23T07:29:52;101332.34;;;-0.55;90.25
77351;BME280;66420;50.246;14.320;2023-01-23T07:32:36;101341.88;;;-0.53;89.63
77351;BME280;66420;50.246;14.320;2023-01-23T07:35:21;101343.34;;;-0.50;90.49
77351;BME280;66420;50.246;14.320;2023-01-23T07:38:05;101346.03;;;-0.50;89.82
77351;BME280;66420;50.246;14.320;2023-01-23T07:40:51;101350.63;;;-0.44;90.13
77351;BME280;66420;50.246;14.320;2023-01-23T07:43:35;101355.25;;;-0.38;90.05
77351;BME280;66420;50.246;14.320;2023-01-23T07:46:20;101325.28;;;-0.35;89.45
77351;BME280;66420;50.246;14.320;2023-01-23T07:49:04;101326.53;;;-0.31;88.90
77351;BME280;66420;50.246;14.320;2023-01-23T07:51:48;101348.91;;;-0.30;89.87
77351;BME280;66420;50.246;14.320;2023-01-23T07:54:33;101374.38;;;-0.26;89.21
77351;BME280;66420;50.246;14.320;2023-01-23T07:57:18;101368.41;;;-0.22;90.05
77351;BME280;66420;50.246;14.320;2023-01-23T08:00:03;101356.25;;;-0.18;89.48
77351;BME280;66420;50.246;14.320;2023-01-23T08:02:48;101358.75;;;-0.16;88.71
77351;BME280;66420;50.246;14.320;2023-01-23T08:05:33;101385.47;;;-0.15;88.83
77351;BME280;66420;50.246;14.320;2023-01-23T08:08:17;101387.75;;;-0.12;88.77
77351;BME280;66420;50.246;14.320;2023-01-23T08:11:06;101378.66;;;-0.11;88.89
77351;BME280;66420;50.246;14.320;2023-01-23T08:13:51;101378.66;;;-0.11;89.00
77351;BME280;66420;50.246;14.320;2023-01-23T08:16:35;101389.22;;;-0.09;88.67
77351;BME280;66420;50.246;14.320;2023-01-23T08:19:20;101372.28;;;-0.10;89.37
77351;BME280;66420;50.246;14.320;2023-01-23T08:22:05;101372.44;;;-0.11;89.45
77351;BME280;66420;50.246;14.320;2023-01-23T08:24:49;101387.75;;;-0.12;88.73
77351;BME280;66420;50.246;14.320;2023-01-23T08:27:34;101391.28;;;-0.11;89.26
77351;BME280;66420;50.246;14.320;2023-01-23T08:30:19;101381.38;;;-0.11;89.55
77351;BME280;66420;50.246;14.320;2023-01-23T08:33:03;101387.75;;;-0.12;88.92
77351;BME280;66420;50.246;14.320;2023-01-23T08:35:52;101389.44;;;-0.11;89.08
77351;BME280;66420;50.246;14.320;2023-01-23T08:38:37;101382.44;;;-0.05;88.85
77351;BME280;66420;50.246;14.320;2023-01-23T08:41:22;101390.06;;;-0.09;89.63
77351;BME280;66420;50.246;14.320;2023-01-23T08:44:07;101391.16;;;-0.03;88.79
77351;BME280;66420;50.246;14.320;2023-01-23T08:46:52;101379.19;;;-0.01;89.15
77351;BME280;66420;50.246;14.320;2023-01-23T08:49:36;101388.28;;;-0.02;88.21
77351;BME280;66420;50.246;14.320;2023-01-23T08:52:21;101401.53;;;0.00;88.42
77351;BME280;66420;50.246;14.320;2023-01-23T08:55:06;101395.31;;;-0.01;88.58
77351;BME280;66420;50.246;14.320;2023-01-23T08:57:50;101412.75;;;0.04;89.24
77351;BME280;66420;50.246;14.320;2023-01-23T09:00:35;101412.75;;;0.04;88.56
77351;BME280;66420;50.246;14.320;2023-01-23T09:03:20;101406.56;;;0.10;88.45
77351;BME280;66420;50.246;14.320;2023-01-23T09:06:05;101411.56;;;0.13;88.62
77351;BME280;66420;50.246;14.320;2023-01-23T09:08:50;101416.97;;;0.13;88.58
77351;BME280;66420;50.246;14.320;2023-01-23T09:11:35;101417.56;;;0.15;89.53
77351;BME280;66420;50.246;14.320;2023-01-23T09:14:19;101423.63;;;0.17;88.64
77351;BME280;66420;50.246;14.320;2023-01-23T09:17:04;101429.41;;;0.14;88.97
77351;BME280;66420;50.246;14.320;2023-01-23T09:19:49;101433.13;;;0.13;88.96
77351;BME280;66420;50.246;14.320;2023-01-23T09:22:34;101427.72;;;0.13;89.15
77351;BME280;66420;50.246;14.320;2023-01-23T09:25:19;101423.63;;;0.17;89.36
77351;BME280;66420;50.246;14.320;2023-01-23T09:28:04;101419.09;;;0.24;89.44
77351;BME280;66420;50.246;14.320;2023-01-23T09:30:48;101430.13;;;0.29;88.68
77351;BME280;66420;50.246;14.320;2023-01-23T09:33:34;101430.94;;;0.29;88.25
77351;BME280;66420;50.246;14.320;2023-01-23T09:36:19;101426.66;;;0.35;88.04
77351;BME280;66420;50.246;14.320;2023-01-23T09:39:03;101421.66;;;0.32;87.77
77351;BME280;66420;50.246;14.320;2023-01-23T09:41:48;101416.31;;;0.38;88.35
77351;BME280;66420;50.246;14.320;2023-01-23T09:47:30;101420.91;;;0.44;86.63
77351;BME280;66420;50.246;14.320;2023-01-23T09:50:32;101430.09;;;0.50;87.33
77351;BME280;66420;50.246;14.320;2023-01-23T09:53:22;101412.63;;;0.46;86.68
77351;BME280;66420;50.246;14.320;2023-01-23T09:59:23;101410.16;;;0.51;85.62
77351;BME280;66420;50.246;14.320;2023-01-23T10:02:16;101397.19;;;0.61;86.24
77351;BME280;66420;50.246;14.320;2023-01-23T10:05:05;101397.84;;;0.63;86.06
77351;BME280;66420;50.246;14.320;2023-01-23T10:11:53;101402.41;;;0.69;86.61
77351;BME280;66420;50.246;14.320;2023-01-23T10:15:01;101401.44;;;0.77;87.41
77351;BME280;66420;50.246;14.320;2023-01-23T10:30:28;101383.47;;;0.91;86.25
77351;BME280;66420;50.246;14.320;2023-01-23T10:33:16;101378.16;;;1.17;84.98
77351;BME280;66420;50.246;14.320;2023-01-23T10:36:09;101379.88;;;1.44;84.82
77351;BME280;66420;50.246;14.320;2023-01-23T10:39:01;101383.25;;;1.59;83.63
77351;BME280;66420;50.246;14.320;2023-01-23T10:41:46;101389.03;;;1.56;83.63
77351;BME280;66420;50.246;14.320;2023-01-23T10:44:31;101386.16;;;1.71;84.15
77351;BME280;66420;50.246;14.320;2023-01-23T10:50:33;101382.19;;;1.54;84.11
77351;BME280;66420;50.246;14.320;2023-01-23T10:53:20;101376.97;;;1.39;83.39
77351;BME280;66420;50.246;14.320;2023-01-23T10:56:13;101372.03;;;1.56;83.86
77351;BME280;66420;50.246;14.320;2023-01-23T10:59:01;101370.38;;;1.68;83.63
77351;BME280;66420;50.246;14.320;2023-01-23T11:04:58;101377.44;;;1.62;83.18
77351;BME280;66420;50.246;14.320;2023-01-23T11:07:52;101365.19;;;1.79;82.95
77351;BME280;66420;50.246;14.320;2023-01-23T11:10:38;101366.44;;;1.97;82.21
77351;BME280;66420;50.246;14.320;2023-01-23T11:13:29;101362.69;;;2.24;82.62
77351;BME280;66420;50.246;14.320;2023-01-23T11:16:19;101361.63;;;2.32;82.57
77351;BME280;66420;50.246;14.320;2023-01-23T11:19:14;101369.97;;;1.77;82.82
77351;BME280;66420;50.246;14.320;2023-01-23T11:22:03;101358.34;;;1.77;83.39
77351;BME280;66420;50.246;14.320;2023-01-23T11:24:48;101356.44;;;1.58;83.37
77351;BME280;66420;50.246;14.320;2023-01-23T11:27:32;101351.69;;;1.66;84.35
77351;BME280;66420;50.246;14.320;2023-01-23T11:30:33;101355.03;;;1.68;84.72
77351;BME280;66420;50.246;14.320;2023-01-23T11:42:10;101348.34;;;1.58;84.56
77351;BME280;66420;50.246;14.320;2023-01-23T11:44:57;101353.75;;;1.51;84.50
77351;BME280;66420;50.246;14.320;2023-01-23T11:50:49;101345.66;;;1.51;85.49
77351;BME280;66420;50.246;14.320;2023-01-23T11:54:18;101335.88;;;1.44;84.23
77351;BME280;66420;50.246;14.320;2023-01-23T12:10:28;101338.16;;;1.40;84.12
77351;BME280;66420;50.246;14.320;2023-01-23T12:40:49;101320.94;;;1.34;83.88
77351;BME280;66420;50.246;14.320;2023-01-23T12:43:53;101312.00;;;1.34;83.94
77351;BME280;66420;50.246;14.320;2023-01-23T12:46:54;101310.97;;;1.35;84.25
77351;BME280;66420;50.246;14.320;2023-01-23T12:49:50;101310.16;;;1.34;84.13
77351;BME280;66420;50.246;14.320;2023-01-23T12:52:45;101310.56;;;1.38;83.92
77351;BME280;66420;50.246;14.320;2023-01-23T12:55:40;101302.69;;;1.43;83.81
77351;BME280;66420;50.246;14.320;2023-01-23T12:58:34;101307.91;;;1.51;84.19
77351;BME280;66420;50.246;14.320;2023-01-23T13:04:44;101310.59;;;1.58;83.74
77351;BME280;66420;50.246;14.320;2023-01-23T13:10:59;101311.00;;;1.61;84.78
77351;BME280;66420;50.246;14.320;2023-01-23T13:14:36;101312.25;;;1.59;84.24
77351;BME280;66420;50.246;14.320;2023-01-23T13:23:32;101310.16;;;1.48;83.89
77351;BME280;66420;50.246;14.320;2023-01-23T13:29:04;101309.97;;;1.49;83.73
77351;BME280;66420;50.246;14.320;2023-01-23T13:31:48;101312.00;;;1.47;84.12
77351;BME280;66420;50.246;14.320;2023-01-23T13:34:36;101320.56;;;1.51;84.58
77351;BME280;66420;50.246;14.320;2023-01-23T13:37:31;101314.72;;;1.47;83.63
77351;BME280;66420;50.246;14.320;2023-01-23T13:40:19;101321.59;;;1.50;83.98
77351;BME280;66420;50.246;14.320;2023-01-23T13:49:49;101334.03;;;1.44;84.36
77351;BME280;66420;50.246;14.320;2023-01-23T13:52:41;101338.78;;;1.42;84.90
77351;BME280;66420;50.246;14.320;2023-01-23T13:55:46;101335.88;;;1.44;84.18
77351;BME280;66420;50.246;14.320;2023-01-23T13:58:49;101341.28;;;1.37;83.79
77351;BME280;66420;50.246;14.320;2023-01-23T14:01:43;101342.09;;;1.31;83.91
77351;BME280;66420;50.246;14.320;2023-01-23T14:04:56;101339.81;;;1.28;84.18
77351;BME280;66420;50.246;14.320;2023-01-23T14:08:05;101338.38;;;1.32;84.05
77351;BME280;66420;50.246;14.320;2023-01-23T14:10:50;101343.75;;;1.32;84.40
77351;BME280;66420;50.246;14.320;2023-01-23T14:13:35;101344.78;;;1.31;84.54
77351;BME280;66420;50.246;14.320;2023-01-23T14:16:21;101345.22;;;1.28;84.74
77351;BME280;66420;50.246;14.320;2023-01-23T14:22:10;101342.09;;;1.31;84.17
77351;BME280;66420;50.246;14.320;2023-01-23T14:24:55;101348.09;;;1.33;84.50
77351;BME280;66420;50.246;14.320;2023-01-23T14:27:40;101346.25;;;1.33;84.33
77351;BME280;66420;50.246;14.320;2023-01-23T14:30:25;101355.38;;;1.39;85.08
77351;BME280;66420;50.246;14.320;2023-01-23T14:33:16;101359.13;;;1.31;84.33
77351;BME280;66420;50.246;14.320;2023-01-23T14:36:01;101358.88;;;1.33;84.73
77351;BME280;66420;50.246;14.320;2023-01-23T14:38:47;101364.69;;;1.30;85.15
77351;BME280;66420;50.246;14.320;2023-01-23T14:41:37;101367.41;;;1.30;84.81
77351;BME280;66420;50.246;14.320;2023-01-23T14:44:28;101365.53;;;1.30;84.95
77351;BME280;66420;50.246;14.320;2023-01-23T14:47:36;101357.03;;;1.27;84.95
77351;BME280;66420;50.246;14.320;2023-01-23T14:50:25;101359.13;;;1.31;84.75
77351;BME280;66420;50.246;14.320;2023-01-23T14:53:14;101359.53;;;1.35;84.61
77351;BME280;66420;50.246;14.320;2023-01-23T14:56:00;101355.59;;;1.31;84.16
77351;BME280;66420;50.246;14.320;2023-01-23T14:58:45;101347.91;;;1.28;84.75
77351;BME280;66420;50.246;14.320;2023-01-23T15:01:31;101349.53;;;1.29;84.47
77351;BME280;66420;50.246;14.320;2023-01-23T15:04:20;101342.09;;;1.31;84.19
77351;BME280;66420;50.246;14.320;2023-01-23T15:07:13;101346.66;;;1.30;84.63
77351;BME280;66420;50.246;14.320;2023-01-23T15:10:01;101350.59;;;1.28;84.54
77351;BME280;66420;50.246;14.320;2023-01-23T15:12:48;101347.47;;;1.24;84.77
77351;BME280;66420;50.246;14.320;2023-01-23T15:15:33;101349.75;;;1.21;84.58
77351;BME280;66420;50.246;14.320;2023-01-23T15:18:23;101353.28;;;1.21;84.95
77351;BME280;66420;50.246;14.320;2023-01-23T15:21:08;101349.13;;;1.19;84.88
77351;BME280;66420;50.246;14.320;2023-01-23T15:24:16;101347.03;;;1.21;85.46
77351;BME280;66420;50.246;14.320;2023-01-23T15:27:18;101354.53;;;1.19;84.81
77351;BME280;66420;50.246;14.320;2023-01-23T15:33:22;101358.06;;;1.26;85.38
77351;BME280;66420;50.246;14.320;2023-01-23T15:36:36;101359.09;;;1.25;84.63
77351;BME280;66420;50.246;14.320;2023-01-23T15:39:26;101354.09;;;1.22;84.86
77351;BME280;66420;50.246;14.320;2023-01-23T15:44:56;101359.91;;;1.19;85.15
77351;BME280;66420;50.246;14.320;2023-01-23T15:47:44;101357.59;;;1.16;84.98
77351;BME280;66420;50.246;14.320;2023-01-23T15:50:29;101364.44;;;1.12;85.10
77351;BME280;66420;50.246;14.320;2023-01-23T15:53:13;101362.78;;;1.11;85.00
77351;BME280;66420;50.246;14.320;2023-01-23T15:55:59;101365.28;;;1.12;85.30
77351;BME280;66420;50.246;14.320;2023-01-23T15:58:43;101368.81;;;1.13;84.96
77351;BME280;66420;50.246;14.320;2023-01-23T16:01:28;101361.94;;;1.10;85.14
77351;BME280;66420;50.246;14.320;2023-01-23T16:04:13;101357.38;;;1.11;84.99
77351;BME280;66420;50.246;14.320;2023-01-23T16:07:00;101361.94;;;1.10;85.31
77351;BME280;66420;50.246;14.320;2023-01-23T16:09:46;101363.19;;;1.08;85.50
77351;BME280;66420;50.246;14.320;2023-01-23T16:12:33;101361.13;;;1.10;85.48
77351;BME280;66420;50.246;14.320;2023-01-23T16:15:30;101363.59;;;1.11;85.31
77351;BME280;66420;50.246;14.320;2023-01-23T16:18:16;101361.56;;;1.13;85.33
77351;BME280;66420;50.246;14.320;2023-01-23T16:21:01;101356.34;;;1.12;85.02
77351;BME280;66420;50.246;14.320;2023-01-23T16:23:45;101372.72;;;1.10;85.02
77351;BME280;66420;50.246;14.320;2023-01-23T16:26:30;101365.28;;;1.12;85.00